Time;durP1;ratioP1;P1;durP2;ratioP2;P2;SDS_P1;SDS_P2;PMS_P1;PMS_P2;Temp;Humidity;BMP_temperature;BMP_pressure;BME280_temperature;BME280_humidity;BME280_pressure;Samples;Min_cycle;Max_cycle;Signal;HPM_P1;HPM_P2
2021/08/04 00:00:31;;;;;;;41.10;30.88;;;;;;;12.72;94.51;101249.69;5072621;28;20059;-64
2021/08/04 00:02:57;;;;;;;42.85;32.22;;;;;;;12.75;94.67;101248.81;5072842;28;20063;-63
2021/08/04 00:05:22;;;;;;;43.67;32.85;;;;;;;12.72;95.44;101249.69;5072546;28;20027;-61
2021/08/04 00:07:48;;;;;;;43.70;32.38;;;;;;;12.71;95.76;101247.94;5072714;28;20025;-64
2021/08/04 00:10:14;;;;;;;44.38;32.35;;;;;;;12.71;95.69;101252.31;5072489;28;20051;-68
2021/08/04 00:12:39;;;;;;;42.67;31.75;;;;;;;12.65;96.34;101249.66;5072484;28;20029;-68
2021/08/04 00:15:06;;;;;;;44.88;33.58;;;;;;;12.70;96.34;101253.22;5072440;28;20025;-66
2021/08/04 00:17:31;;;;;;;44.47;33.65;;;;;;;12.73;96.10;101253.22;5072576;28;20077;-66
2021/08/04 00:19:57;;;;;;;43.50;32.50;;;;;;;12.68;95.94;101244.38;5072521;28;20103;-68
2021/08/04 00:22:22;;;;;;;45.60;34.28;;;;;;;12.60;97.88;101246.13;5072359;28;20032;-67
2021/08/04 00:24:47;;;;;;;42.30;30.98;;;;;;;12.52;95.37;101248.75;5072527;28;20020;-67
2021/08/04 00:27:13;;;;;;;42.03;32.42;;;;;;;12.53;97.17;101251.41;5072312;28;20092;-67
2021/08/04 00:29:38;;;;;;;42.20;31.35;;;;;;;12.58;95.97;101248.75;5072528;28;20376;-67
2021/08/04 00:32:05;;;;;;;42.92;32.65;;;;;;;12.41;97.42;101256.69;5072746;28;20025;-68
2021/08/04 00:34:30;;;;;;;44.92;32.95;;;;;;;12.41;97.76;101246.06;5072600;28;20446;-69
2021/08/04 00:36:56;;;;;;;43.15;32.45;;;;;;;12.46;97.52;101252.25;5072286;28;20112;-67
2021/08/04 00:39:21;;;;;;;43.00;33.03;;;;;;;12.57;96.80;101252.31;5072150;28;20024;-68
2021/08/04 00:41:46;;;;;;;43.28;31.77;;;;;;;12.51;96.75;101252.31;5072185;28;20021;-69
2021/08/04 00:44:12;;;;;;;46.10;34.53;;;;;;;12.46;97.82;101244.31;5072563;28;20036;-67
2021/08/04 00:46:43;;;;;;;41.85;31.27;;;;;;;12.44;96.71;101239.91;5072203;28;20459;-66
2021/08/04 00:49:10;;;;;;;41.35;30.45;;;;;;;12.46;95.18;101243.44;5072248;28;20047;-69
2021/08/04 00:51:36;;;;;;;40.58;29.90;;;;;;;12.36;94.86;101239.84;5072283;28;20364;-67
2021/08/04 00:54:04;;;;;;;42.42;31.13;;;;;;;12.30;97.49;101242.50;5072485;28;20032;-68
2021/08/04 00:56:30;;;;;;;42.92;31.85;;;;;;;12.14;98.84;101247.72;5075996;28;20051;-68
2021/08/04 00:58:56;;;;;;;46.58;34.88;;;;;;;12.06;100.00;101246.81;5074808;28;20036;-69
2021/08/04 01:01:49;;;;;;;44.55;33.42;;;;;;;12.12;99.92;101248.63;5075993;28;20020;-69
2021/08/04 01:04:30;;;;;;;42.63;33.38;;;;;;;12.17;99.01;101250.41;5068900;28;20495;-65
2021/08/04 01:07:00;;;;;;;44.67;33.63;;;;;;;12.24;100.00;101253.97;5073329;28;20029;-61
2021/08/04 01:09:31;;;;;;;45.38;34.25;;;;;;;12.19;100.00;101251.28;5075464;28;20067;-61
2021/08/04 01:12:02;;;;;;;43.65;33.85;;;;;;;12.13;100.00;101247.72;5075775;28;20112;-61
2021/08/04 01:14:30;;;;;;;43.58;31.75;;;;;;;12.00;100.00;101246.81;5075842;28;20107;-60
2021/08/04 01:16:56;;;;;;;42.03;31.92;;;;;;;11.92;99.48;101246.72;5075326;28;20028;-61
2021/08/04 01:19:41;;;;;;;44.80;33.28;;;;;;;11.94;100.00;101246.75;5075592;28;20024;-61
2021/08/04 01:22:14;;;;;;;41.72;30.52;;;;;;;11.81;99.45;101254.63;5074110;28;20058;-61
2021/08/04 01:24:55;;;;;;;40.72;30.52;;;;;;;11.74;98.26;101247.50;5075424;28;20077;-60
2021/08/04 01:27:23;;;;;;;43.05;32.60;;;;;;;11.73;99.48;101253.66;5072401;28;20131;-61
2021/08/04 01:29:50;;;;;;;40.47;31.20;;;;;;;11.71;99.75;101258.09;5071249;28;20086;-61
2021/08/04 01:32:18;;;;;;;42.63;33.42;;;;;;;11.69;100.00;101254.53;5075261;28;20031;-60
2021/08/04 01:34:45;;;;;;;41.85;32.08;;;;;;;11.64;100.00;101250.97;5075297;28;20029;-60
2021/08/04 01:37:11;;;;;;;44.95;35.05;;;;;;;11.53;100.00;101258.81;5075329;28;20387;-61
2021/08/04 01:39:37;;;;;;;45.90;35.22;;;;;;;11.51;100.00;101258.81;5075573;28;20413;-60
2021/08/04 01:42:04;;;;;;;46.28;35.42;;;;;;;11.55;100.00;101254.44;5075270;28;20021;-65
2021/08/04 01:44:33;;;;;;;43.88;33.58;;;;;;;11.57;100.00;101259.75;5075491;28;20387;-65
2021/08/04 01:46:58;;;;;;;45.13;33.72;;;;;;;11.62;100.00;101245.66;5075090;28;20032;-65
2021/08/04 01:49:27;;;;;;;40.58;30.23;;;;;;;11.60;100.00;101254.47;5075160;28;20498;-66
2021/08/04 01:51:53;;;;;;;44.35;33.72;;;;;;;11.48;100.00;101250.84;5075282;28;20027;-66
2021/08/04 01:54:19;;;;;;;41.97;32.03;;;;;;;11.46;100.00;101257.91;5075198;28;20040;-68
2021/08/04 01:56:44;;;;;;;43.28;33.30;;;;;;;11.57;100.00;101250.03;5074796;28;20079;-67
2021/08/04 01:59:10;;;;;;;42.53;33.47;;;;;;;11.51;100.00;101250.88;5075180;28;20024;-69
2021/08/04 02:01:37;;;;;;;42.85;32.70;;;;;;;11.46;100.00;101244.69;5074804;28;20021;-68
2021/08/04 02:04:03;;;;;;;43.03;32.92;;;;;;;11.43;100.00;101247.31;5075098;28;20028;-65
2021/08/04 02:06:32;;;;;;;42.60;33.45;;;;;;;11.33;100.00;101256.94;5073606;28;20025;-66
2021/08/04 02:09:07;;;;;;;43.30;34.35;;;;;;;11.31;100.00;101250.75;5074611;28;20040;-68
2021/08/04 02:11:52;;;;;;;45.65;35.53;;;;;;;11.38;100.00;101251.66;5074579;28;20021;-66
2021/08/04 02:14:31;;;;;;;43.60;34.17;;;;;;;11.43;100.00;101246.41;5075079;28;20029;-68
2021/08/04 02:17:06;;;;;;;44.33;34.25;;;;;;;11.40;100.00;101235.78;5071397;28;20070;-68
2021/08/04 02:19:42;;;;;;;42.90;31.73;;;;;;;11.46;100.00;101236.75;5074781;28;20394;-68
2021/08/04 02:22:14;;;;;;;44.10;33.35;;;;;;;11.49;100.00;101233.22;5074860;28;20046;-68
2021/08/04 02:24:44;;;;;;;40.70;31.75;;;;;;;11.49;100.00;101227.94;5074374;28;20099;-61
2021/08/04 02:27:12;;;;;;;39.47;29.42;;;;;;;11.41;100.00;101219.06;5074635;28;20111;-61
2021/08/04 02:29:41;;;;;;;40.03;29.98;;;;;;;11.44;100.00;101219.94;5074455;28;20032;-66
2021/08/04 02:32:07;;;;;;;38.90;28.52;;;;;;;11.43;100.00;101226.13;5074203;28;20024;-64
2021/08/04 02:34:33;;;;;;;40.38;30.70;;;;;;;11.38;100.00;101221.69;5074158;28;20029;-60
2021/08/04 02:36:58;;;;;;;41.90;31.00;;;;;;;11.26;100.00;101230.41;5074028;28;20355;-60
2021/08/04 02:39:24;;;;;;;44.47;33.63;;;;;;;11.11;100.00;101231.16;5074083;28;20021;-61
2021/08/04 02:41:50;;;;;;;43.20;33.20;;;;;;;10.95;100.00;101232.78;5074203;28;20028;-64
2021/08/04 02:44:16;;;;;;;40.15;30.52;;;;;;;10.95;100.00;101243.38;5074431;28;20031;-61
2021/08/04 02:46:44;;;;;;;44.03;33.63;;;;;;;11.00;100.00;101231.09;5074149;28;20115;-64
2021/08/04 02:49:10;;;;;;;44.63;34.33;;;;;;;11.00;100.00;101241.66;5074149;28;20038;-65
2021/08/04 02:51:39;;;;;;;45.25;33.65;;;;;;;11.06;100.00;101233.78;5073858;28;20095;-62
2021/08/04 02:54:04;;;;;;;43.22;32.78;;;;;;;11.02;100.00;101234.63;5073737;28;20043;-63
2021/08/04 02:56:29;;;;;;;42.40;30.60;;;;;;;11.03;100.00;101241.69;5073935;28;20020;-65
2021/08/04 02:58:54;;;;;;;41.53;30.70;;;;;;;10.96;100.00;101234.56;5073827;28;20417;-62
2021/08/04 03:01:21;;;;;;;42.22;31.80;;;;;;;10.98;100.00;101239.00;5073744;28;20593;-62
2021/08/04 03:03:46;;;;;;;39.88;30.75;;;;;;;10.92;100.00;101236.31;5073530;28;20029;-61
2021/08/04 03:06:11;;;;;;;42.60;30.48;;;;;;;10.91;100.00;101238.94;5073619;28;20142;-61
2021/08/04 03:08:37;;;;;;;38.20;28.00;;;;;;;10.87;100.00;101237.13;5073405;28;20399;-63
2021/08/04 03:11:03;;;;;;;37.95;28.48;;;;;;;10.82;100.00;101230.03;5073628;28;20070;-67
2021/08/04 03:13:28;;;;;;;39.13;28.13;;;;;;;10.81;100.00;101228.25;5073596;28;20029;-66
2021/08/04 03:15:55;;;;;;;38.38;27.63;;;;;;;10.74;100.00;101234.34;5073500;28;20104;-66
2021/08/04 03:18:20;;;;;;;40.22;29.45;;;;;;;10.76;100.00;101237.00;5072998;28;20522;-68
2021/08/04 03:20:45;;;;;;;38.65;28.45;;;;;;;10.73;100.00;101227.31;5073383;28;20028;-66
2021/08/04 03:23:11;;;;;;;40.72;30.63;;;;;;;10.80;100.00;101245.03;5073112;28;20036;-67
2021/08/04 03:25:36;;;;;;;37.00;27.08;;;;;;;10.76;100.00;101242.31;5073498;28;20029;-66
2021/08/04 03:28:02;;;;;;;37.95;27.83;;;;;;;10.79;100.00;101250.25;5073238;28;20442;-67
2021/08/04 03:30:27;;;;;;;39.40;30.20;;;;;;;10.76;100.00;101243.22;5073089;28;20379;-66
2021/08/04 03:32:52;;;;;;;37.08;27.83;;;;;;;10.83;100.00;101244.13;5073137;28;20021;-68
2021/08/04 03:35:17;;;;;;;41.75;30.58;;;;;;;10.91;100.00;101245.09;5072989;28;20052;-67
2021/08/04 03:37:43;;;;;;;41.95;31.42;;;;;;;10.94;100.00;101245.13;5072778;28;20025;-64
2021/08/04 03:40:09;;;;;;;40.42;30.23;;;;;;;11.05;100.00;101249.63;5073110;28;20020;-66
2021/08/04 03:42:35;;;;;;;41.65;30.67;;;;;;;10.98;100.00;101249.59;5072551;28;20024;-68
2021/08/04 03:45:00;;;;;;;39.63;30.25;;;;;;;11.06;100.00;101246.13;5072843;28;20054;-68
2021/08/04 03:47:26;;;;;;;40.53;30.45;;;;;;;11.15;100.00;101252.38;5073074;28;20070;-67
2021/08/04 03:49:52;;;;;;;42.75;32.67;;;;;;;11.26;100.00;101249.81;5072817;28;20029;-68
2021/08/04 03:52:18;;;;;;;41.00;30.52;;;;;;;11.29;100.00;101254.25;5073025;28;20048;-67
2021/08/04 03:54:43;;;;;;;41.08;29.00;;;;;;;11.22;100.00;101255.94;5072772;28;20027;-66
2021/08/04 03:57:09;;;;;;;40.15;30.63;;;;;;;11.21;100.00;101258.59;5072617;28;20036;-65
2021/08/04 03:59:34;;;;;;;40.97;31.08;;;;;;;11.14;100.00;101255.03;5072648;28;20024;-60
2021/08/04 04:01:59;;;;;;;39.45;29.15;;;;;;;11.15;100.00;101255.03;5072917;28;20020;-63
2021/08/04 04:04:25;;;;;;;42.45;30.65;;;;;;;11.10;100.00;101247.94;5072591;28;20421;-67
2021/08/04 04:06:50;;;;;;;41.72;31.42;;;;;;;10.92;100.00;101254.81;5072741;28;20526;-68
2021/08/04 04:09:16;;;;;;;41.08;31.38;;;;;;;10.86;100.00;101251.22;5072139;28;20044;-66
2021/08/04 04:11:41;;;;;;;41.33;30.75;;;;;;;10.77;100.00;101252.03;5072825;28;20029;-63
2021/08/04 04:14:06;;;;;;;41.97;30.77;;;;;;;10.69;100.00;101254.59;5071368;28;20159;-66
2021/08/04 04:16:31;;;;;;;40.55;30.58;;;;;;;10.77;100.00;101255.53;5072756;28;20032;-65
2021/08/04 04:18:57;;;;;;;43.58;33.92;;;;;;;10.73;100.00;101252.84;5072392;28;20347;-61
2021/08/04 04:21:22;;;;;;;45.80;34.30;;;;;;;10.65;100.00;101255.44;5072918;28;20379;-66
2021/08/04 04:23:47;;;;;;;45.80;35.25;;;;;;;10.58;100.00;101258.88;5072414;28;20483;-63
2021/08/04 04:26:13;;;;;;;45.53;35.95;;;;;;;10.53;100.00;101261.47;5072263;28;20016;-62
2021/08/04 04:28:38;;;;;;;43.80;33.38;;;;;;;10.56;100.00;101266.78;5072742;28;20031;-67
2021/08/04 04:31:03;;;;;;;40.97;31.52;;;;;;;10.61;100.00;101266.84;5076774;28;20834;-63
2021/08/04 04:33:29;;;;;;;41.45;31.30;;;;;;;10.63;100.00;101268.63;5076963;28;20025;-62
2021/08/04 04:35:55;;;;;;;41.17;31.48;;;;;;;10.65;100.00;101268.66;5076525;28;20023;-63
2021/08/04 04:38:21;;;;;;;41.53;31.45;;;;;;;10.71;100.00;101265.19;5072338;28;20040;-63
2021/08/04 04:40:46;;;;;;;42.85;32.20;;;;;;;10.78;100.00;101272.31;5076664;28;20024;-62
2021/08/04 04:43:11;;;;;;;41.78;30.40;;;;;;;10.95;100.00;101276.00;5076281;28;20371;-61
2021/08/04 04:45:37;;;;;;;40.55;30.55;;;;;;;11.09;100.00;101286.72;5076304;28;20085;-62
2021/08/04 04:48:03;;;;;;;39.92;30.65;;;;;;;11.22;100.00;101277.13;5076701;28;20455;-64
2021/08/04 04:50:28;;;;;;;43.00;32.88;;;;;;;11.29;100.00;101278.06;5076241;28;20054;-64
2021/08/04 04:52:53;;;;;;;45.65;34.25;;;;;;;11.34;100.00;101271.03;5076204;28;20024;-66
2021/08/04 04:55:19;;;;;;;45.28;33.55;;;;;;;11.37;100.00;101272.84;5076286;28;20023;-66
2021/08/04 04:57:44;;;;;;;43.17;33.35;;;;;;;11.45;100.00;101269.38;5076190;28;20036;-66
2021/08/04 05:00:10;;;;;;;42.65;31.65;;;;;;;11.58;100.00;101270.34;5075968;28;20028;-68
2021/08/04 05:02:40;;;;;;;40.95;30.73;;;;;;;11.69;100.00;101275.72;5076026;28;20158;-68
2021/08/04 05:05:07;;;;;;;41.53;31.13;;;;;;;11.87;100.00;101277.59;5075866;28;20017;-66
2021/08/04 05:07:32;;;;;;;42.60;33.08;;;;;;;11.97;100.00;101274.16;5075784;28;20028;-65
2021/08/04 05:09:58;;;;;;;43.70;32.40;;;;;;;12.13;100.00;101275.13;5075763;28;20123;-66
2021/08/04 05:12:23;;;;;;;43.53;33.22;;;;;;;12.17;100.00;101271.63;5075608;28;20024;-65
2021/08/04 05:14:48;;;;;;;41.55;32.13;;;;;;;12.29;100.00;101273.44;5075621;28;20028;-65
2021/08/04 05:17:14;;;;;;;46.88;36.47;;;;;;;12.37;100.00;101270.81;5075708;28;20024;-65
2021/08/04 05:19:40;;;;;;;44.08;34.72;;;;;;;12.43;100.00;101273.47;5075537;28;20032;-65
2021/08/04 05:22:05;;;;;;;44.38;35.40;;;;;;;12.43;100.00;101276.13;5075498;28;20056;-66
2021/08/04 05:24:31;;;;;;;45.45;34.65;;;;;;;12.47;100.00;101277.91;5075606;28;20040;-66
2021/08/04 05:26:56;;;;;;;43.90;33.30;;;;;;;12.50;100.00;101283.22;5075302;28;20356;-65
2021/08/04 05:29:21;;;;;;;45.28;35.60;;;;;;;12.55;100.00;101286.78;5075764;28;20029;-66
2021/08/04 05:31:47;;;;;;;46.58;37.90;;;;;;;12.64;100.00;101287.66;5070265;28;20028;-62
2021/08/04 05:34:12;;;;;;;46.33;37.33;;;;;;;12.74;100.00;101292.13;5072581;28;20044;-63
2021/08/04 05:36:37;;;;;;;46.85;36.28;;;;;;;12.92;100.00;101291.28;5073034;28;20029;-63
2021/08/04 05:39:03;;;;;;;47.72;35.80;;;;;;;12.96;100.00;101284.19;5076954;28;20024;-63
2021/08/04 05:41:28;;;;;;;47.95;37.88;;;;;;;13.07;100.00;101293.06;5081685;28;20024;-63
2021/08/04 05:43:53;;;;;;;49.53;38.88;;;;;;;13.17;100.00;101286.88;5078798;28;20028;-61
2021/08/04 05:46:19;;;;;;;49.40;40.00;;;;;;;13.22;100.00;101285.13;5076741;28;20468;-63
2021/08/04 05:48:44;;;;;;;48.63;38.67;;;;;;;13.35;100.00;101283.41;5081910;28;20116;-64
2021/08/04 05:51:09;;;;;;;49.03;39.67;;;;;;;13.49;100.00;101286.03;5081113;28;20067;-62
2021/08/04 05:53:35;;;;;;;50.08;42.00;;;;;;;13.54;100.00;101284.28;5079214;28;20028;-63
2021/08/04 05:56:00;;;;;;;52.22;42.20;;;;;;;13.64;100.00;101287.78;5078458;28;20536;-63
2021/08/04 05:58:25;;;;;;;52.17;43.20;;;;;;;13.70;100.00;101277.19;5078995;28;20468;-63
2021/08/04 06:00:51;;;;;;;48.00;40.10;;;;;;;13.77;100.00;101284.25;5080314;28;20032;-62
2021/08/04 06:03:16;;;;;;;48.33;39.47;;;;;;;13.86;100.00;101279.78;5079638;28;20020;-61
2021/08/04 06:05:41;;;;;;;46.53;39.05;;;;;;;13.92;100.00;101283.31;5080599;28;20079;-62
2021/08/04 06:08:10;;;;;;;47.42;37.75;;;;;;;13.97;100.00;101278.00;5081451;28;20072;-62
2021/08/04 06:10:36;;;;;;;46.92;38.35;;;;;;;14.04;100.00;101276.22;5077233;28;20076;-62
2021/08/04 06:13:01;;;;;;;46.58;38.83;;;;;;;14.07;100.00;101287.69;5078942;28;20067;-63
2021/08/04 06:15:26;;;;;;;46.10;39.42;;;;;;;14.14;99.71;101288.59;5078851;28;20029;-64
2021/08/04 06:17:52;;;;;;;46.83;39.60;;;;;;;14.24;100.00;101290.31;5078251;28;20032;-63
2021/08/04 06:20:17;;;;;;;48.70;41.25;;;;;;;14.32;100.00;101286.75;5080909;28;20086;-63
2021/08/04 06:22:43;;;;;;;50.63;39.25;;;;;;;14.37;98.62;101296.47;5075806;28;20021;-63
2021/08/04 06:25:09;;;;;;;48.60;40.13;;;;;;;14.42;98.55;101293.78;5079065;28;20489;-62
2021/08/04 06:27:34;;;;;;;47.45;39.80;;;;;;;14.56;99.43;101296.38;5074550;28;20537;-61
2021/08/04 06:29:59;;;;;;;47.55;37.72;;;;;;;14.72;97.72;101300.78;5075780;28;20171;-65
2021/08/04 06:32:25;;;;;;;46.97;38.05;;;;;;;14.86;96.48;101295.34;5077711;28;20028;-68
2021/08/04 06:34:50;;;;;;;45.08;36.40;;;;;;;14.93;94.39;101299.75;5077071;28;20025;-69
2021/08/04 06:37:15;;;;;;;46.13;37.05;;;;;;;15.06;94.79;101294.34;5074025;28;20028;-61
2021/08/04 06:39:40;;;;;;;46.17;37.20;;;;;;;15.10;94.94;101294.31;5069542;28;20059;-62
2021/08/04 06:42:06;;;;;;;46.72;38.05;;;;;;;15.18;94.90;101296.91;5073374;28;20119;-64
2021/08/04 06:44:31;;;;;;;47.70;37.28;;;;;;;15.24;95.31;101301.31;5076292;28;20468;-62
2021/08/04 06:46:58;;;;;;;47.42;37.95;;;;;;;15.22;95.18;101296.00;5070086;28;20009;-67
2021/08/04 06:49:23;;;;;;;47.90;37.17;;;;;;;15.19;92.46;101303.09;5071048;28;20142;-63
2021/08/04 06:51:49;;;;;;;50.97;38.50;;;;;;;15.19;93.17;101301.34;5070058;28;20100;-63
2021/08/04 06:54:14;;;;;;;49.97;38.30;;;;;;;15.20;93.08;101300.44;5070593;28;20025;-66
2021/08/04 06:56:40;;;;;;;48.78;38.10;;;;;;;15.22;93.92;101311.06;5074529;28;20024;-65
2021/08/04 06:59:05;;;;;;;49.80;39.08;;;;;;;15.21;95.59;101307.53;5070812;28;20052;-62
2021/08/04 07:01:30;;;;;;;48.08;37.38;;;;;;;15.21;94.66;101299.53;5070064;28;20434;-67
2021/08/04 07:03:56;;;;;;;50.90;42.33;;;;;;;15.20;99.31;101299.56;5070459;28;20020;-61
2021/08/04 07:06:21;;;;;;;50.85;42.03;;;;;;;15.22;99.50;101309.31;5068781;28;20051;-68
2021/08/04 07:08:46;;;;;;;52.05;43.05;;;;;;;15.28;100.00;101301.25;5073598;28;20027;-67
2021/08/04 07:11:12;;;;;;;51.40;42.20;;;;;;;15.36;99.36;101300.31;5070352;28;20067;-62
2021/08/04 07:13:37;;;;;;;54.17;42.25;;;;;;;15.41;99.82;101303.84;5071569;28;20482;-61
2021/08/04 07:16:03;;;;;;;48.13;38.53;;;;;;;15.44;96.31;101306.47;5069232;28;20493;-62
2021/08/04 07:18:28;;;;;;;48.30;40.00;;;;;;;15.49;97.27;101305.53;5068747;28;20187;-65
2021/08/04 07:20:54;;;;;;;48.92;39.88;;;;;;;15.54;95.69;101300.16;5070463;28;20036;-61
2021/08/04 07:23:20;;;;;;;47.65;38.92;;;;;;;15.61;96.05;101303.66;5066879;28;20028;-60
2021/08/04 07:25:45;;;;;;;47.78;38.58;;;;;;;15.68;96.19;101298.25;5073252;28;20035;-60
2021/08/04 07:28:11;;;;;;;47.33;36.83;;;;;;;15.71;92.48;101291.13;5071189;28;20028;-60
2021/08/04 07:30:36;;;;;;;45.28;38.15;;;;;;;15.77;94.27;101291.97;5071360;28;20016;-61
2021/08/04 07:33:02;;;;;;;48.65;39.15;;;;;;;15.78;94.89;101290.16;5073237;28;20027;-61
2021/08/04 07:35:27;;;;;;;50.05;40.40;;;;;;;15.88;96.80;101288.34;5075751;28;20073;-61
2021/08/04 07:37:53;;;;;;;48.15;40.78;;;;;;;15.97;96.49;101282.88;5073217;28;20028;-60
2021/08/04 07:40:19;;;;;;;46.80;37.45;;;;;;;16.08;93.65;101282.78;5071627;28;20103;-60
2021/08/04 07:42:46;;;;;;;44.22;36.20;;;;;;;16.16;92.55;101286.22;5071917;28;20027;-62
2021/08/04 07:45:12;;;;;;;38.67;30.73;;;;;;;16.23;88.66;101282.59;5065369;28;20021;-61
2021/08/04 07:47:38;;;;;;;39.88;30.05;;;;;;;16.30;86.60;101288.75;5077932;28;20065;-60
2021/08/04 07:50:05;;;;;;;37.92;29.25;;;;;;;16.44;86.95;101283.22;5070980;28;20031;-64
2021/08/04 07:52:30;;;;;;;35.63;26.48;;;;;;;16.52;85.58;101286.66;5071371;28;20452;-60
2021/08/04 07:54:55;;;;;;;36.53;26.40;;;;;;;16.65;84.46;101285.59;5071496;28;20052;-64
2021/08/04 07:57:21;;;;;;;35.10;26.23;;;;;;;16.77;82.49;101289.00;5075370;28;20387;-61
2021/08/04 07:59:46;;;;;;;33.60;24.08;;;;;;;16.87;82.31;101287.97;5075689;28;20063;-61
2021/08/04 08:02:11;;;;;;;27.73;17.35;;;;;;;16.95;78.02;101288.78;5072355;28;20035;-60
2021/08/04 08:04:37;;;;;;;31.63;22.27;;;;;;;17.02;77.37;101285.09;5071594;28;20055;-62
2021/08/04 08:07:02;;;;;;;29.92;20.48;;;;;;;17.17;77.36;101280.41;5072474;28;20032;-61
2021/08/04 08:09:28;;;;;;;26.00;15.65;;;;;;;17.24;70.83;101292.75;5071804;28;20037;-61
2021/08/04 08:11:58;;;;;;;27.50;16.88;;;;;;;17.30;72.27;101283.75;5077076;28;20033;-62
2021/08/04 08:14:24;;;;;;;29.08;19.23;;;;;;;17.50;73.47;101280.75;5073329;28;20028;-62
2021/08/04 08:16:50;;;;;;;27.20;16.23;;;;;;;17.63;72.15;101284.09;5071135;28;20053;-68
2021/08/04 08:19:15;;;;;;;28.98;16.92;;;;;;;17.76;72.21;101280.28;5074747;28;20110;-62
2021/08/04 08:21:41;;;;;;;28.08;16.58;;;;;;;17.89;69.84;101281.81;5074868;28;20077;-62
2021/08/04 08:24:06;;;;;;;27.00;15.90;;;;;;;18.00;68.42;101281.66;5076119;28;20423;-67
2021/08/04 08:26:33;;;;;;;25.25;14.95;;;;;;;18.02;67.15;101276.28;5072528;28;20028;-69
2021/08/04 08:28:59;;;;;;;27.58;14.38;;;;;;;18.10;66.70;101275.22;5075345;28;20024;-67
2021/08/04 08:31:24;;;;;;;26.73;13.35;;;;;;;18.54;63.70;101272.50;5070233;28;21158;-68
2021/08/04 08:33:50;;;;;;;23.92;12.48;;;;;;;19.26;62.60;101272.63;5075027;28;20047;-70
2021/08/04 08:36:15;;;;;;;23.85;12.80;;;;;;;20.28;59.31;101269.03;5073978;28;20127;-70
2021/08/04 08:38:41;;;;;;;24.20;11.95;;;;;;;21.05;53.87;101272.06;5074513;28;20043;-71
2021/08/04 08:41:07;;;;;;;24.52;12.63;;;;;;;21.55;53.42;101273.97;5075664;28;20093;-68
2021/08/04 08:43:34;;;;;;;24.80;13.05;;;;;;;21.66;53.63;101274.50;5076517;28;20470;-73
2021/08/04 08:46:01;;;;;;;23.75;10.75;;;;;;;21.43;51.45;101275.25;5073412;28;20052;-70
2021/08/04 08:48:27;;;;;;;22.15;10.70;;;;;;;21.05;52.34;101266.69;5073892;28;20032;-63
2021/08/04 08:50:53;;;;;;;24.02;12.30;;;;;;;20.95;53.30;101267.91;5066948;28;20028;-68
2021/08/04 08:53:21;;;;;;;24.60;12.43;;;;;;;20.98;52.99;101276.72;5072042;28;20025;-63
2021/08/04 08:55:47;;;;;;;24.25;13.98;;;;;;;21.11;52.02;101274.53;5071453;28;20028;-63
2021/08/04 08:58:13;;;;;;;25.08;13.48;;;;;;;21.20;53.48;101271.56;5071719;28;20024;-62
2021/08/04 09:00:38;;;;;;;24.92;12.70;;;;;;;21.32;54.47;101272.06;5065744;28;20043;-65
2021/08/04 09:03:04;;;;;;;23.38;11.32;;;;;;;21.22;53.25;101272.38;5069339;28;21360;-65
2021/08/04 09:05:45;;;;;;;23.17;10.52;;;;;;;21.21;51.22;101272.41;5069222;28;20027;-67
2021/08/04 09:08:40;;;;;;;23.87;11.63;;;;;;;21.49;54.16;101274.16;5068230;28;20030;-68
2021/08/04 09:11:09;;;;;;;23.55;11.52;;;;;;;21.32;53.44;101278.31;5009534;28;20060;-66
2021/08/04 09:13:36;;;;;;;24.63;11.73;;;;;;;21.46;52.04;101277.84;5010119;28;20026;-63
2021/08/04 09:16:31;;;;;;;24.23;12.60;;;;;;;21.69;52.87;101284.28;4996327;28;20101;-65
2021/08/04 09:18:56;;;;;;;22.80;11.93;;;;;;;21.68;51.82;101285.19;5016555;28;20034;-68
2021/08/04 09:21:24;;;;;;;22.92;11.75;;;;;;;21.65;49.00;101283.50;5020254;28;20115;-66
2021/08/04 09:23:50;;;;;;;23.88;11.38;;;;;;;21.80;50.28;101281.19;5015807;28;20117;-62
2021/08/04 09:26:26;;;;;;;24.02;11.35;;;;;;;21.89;49.33;101279.06;5015184;28;20034;-68
2021/08/04 09:29:00;;;;;;;23.50;10.98;;;;;;;22.08;51.04;101276.56;5017001;28;20038;-64
2021/08/04 09:31:41;;;;;;;23.23;11.13;;;;;;;22.34;51.15;101279.25;5017137;28;20046;-64
2021/08/04 09:34:26;;;;;;;23.15;10.48;;;;;;;22.80;50.46;101278.34;5019186;28;20135;-61
2021/08/04 09:37:21;;;;;;;25.92;10.52;;;;;;;23.38;48.24;101282.28;5015810;28;20030;-64
2021/08/04 09:39:57;;;;;;;22.60;10.45;;;;;;;24.07;43.75;101275.75;4953465;29;20043;-61
2021/08/04 09:42:41;;;;;;;23.45;10.35;;;;;;;24.95;42.92;101274.31;4953273;29;20138;-61
2021/08/04 09:45:08;;;;;;;20.88;8.65;;;;;;;26.00;39.46;101271.69;4952623;29;20076;-61
2021/08/04 09:47:33;;;;;;;20.88;8.45;;;;;;;27.09;37.81;101270.16;4983874;28;20050;-61
2021/08/04 09:49:58;;;;;;;20.58;8.10;;;;;;;28.09;36.02;101263.31;5011373;28;20030;-61
2021/08/04 09:52:24;;;;;;;21.70;8.40;;;;;;;27.90;35.78;101263.56;5011718;28;20026;-62
2021/08/04 09:54:50;;;;;;;19.45;7.68;;;;;;;26.69;37.37;101267.03;5010727;28;20034;-59
2021/08/04 09:57:15;;;;;;;20.50;8.00;;;;;;;27.40;37.15;101272.94;5011218;28;20041;-60
2021/08/04 10:00:08;;;;;;;20.83;7.80;;;;;;;28.58;37.75;101261.13;5011757;28;20161;-60
2021/08/04 10:02:33;;;;;;;20.88;8.13;;;;;;;29.36;33.88;101264.09;5008228;28;20046;-60
2021/08/04 10:05:25;;;;;;;20.70;8.20;;;;;;;30.22;32.41;101264.53;5004229;28;20543;-60
2021/08/04 10:08:07;;;;;;;22.10;9.20;;;;;;;30.58;31.63;101258.28;5004181;28;20197;-61
2021/08/04 10:10:35;;;;;;;21.27;9.75;;;;;;;30.23;31.89;101260.81;4999939;28;20050;-61
2021/08/04 10:13:03;;;;;;;36.00;13.50;;;;;;;28.34;34.39;101256.31;4992895;28;20054;-64
2021/08/04 10:15:31;;;;;;;24.17;12.13;;;;;;;27.38;37.00;101262.16;5001658;28;20488;-64
2021/08/04 10:17:58;;;;;;;23.65;12.07;;;;;;;26.48;38.65;101260.09;5049712;28;20021;-70
2021/08/04 10:20:24;;;;;;;23.50;12.88;;;;;;;25.78;40.23;101258.41;5030506;28;20017;-64
2021/08/04 10:22:49;;;;;;;24.83;13.55;;;;;;;25.79;40.30;101256.56;5034452;28;20021;-61
2021/08/04 10:25:15;;;;;;;24.25;13.30;;;;;;;27.62;37.77;101258.94;5034370;28;20022;-62
2021/08/04 10:27:40;;;;;;;23.08;12.02;;;;;;;29.29;34.26;101251.91;5033380;28;20035;-65
2021/08/04 10:30:08;;;;;;;23.75;12.68;;;;;;;30.13;31.90;101248.81;5034153;28;20024;-66
2021/08/04 10:32:34;;;;;;;23.38;12.27;;;;;;;29.82;33.40;101251.88;5034036;28;20021;-67
2021/08/04 10:35:00;;;;;;;23.98;11.68;;;;;;;31.15;30.46;101247.72;5033592;28;20071;-70
2021/08/04 10:37:26;;;;;;;25.02;13.63;;;;;;;30.51;30.60;101242.44;5038985;28;20037;-62
2021/08/04 10:39:52;;;;;;;24.13;12.65;;;;;;;28.66;33.99;101235.19;5037952;28;20582;-70
2021/08/04 10:42:18;;;;;;;23.40;12.13;;;;;;;27.20;36.39;101238.81;5038118;28;20034;-71
2021/08/04 10:44:46;;;;;;;25.02;12.48;;;;;;;26.20;39.29;101240.81;5040424;28;20032;-74
2021/08/04 10:47:42;;;;;;;24.25;12.55;;;;;;;25.63;41.54;101246.56;5037019;28;20140;-67
2021/08/04 10:50:10;;;;;;;23.00;12.60;;;;;;;25.21;41.75;101239.69;5002907;28;20117;-66
2021/08/04 10:52:35;;;;;;;23.40;12.55;;;;;;;26.63;38.50;101234.81;4998266;28;20041;-66
2021/08/04 10:55:03;;;;;;;23.77;10.85;;;;;;;28.14;34.50;101231.25;4998171;28;20038;-66
2021/08/04 10:57:29;;;;;;;20.40;9.40;;;;;;;27.69;35.48;101233.16;4998590;28;20477;-68
2021/08/04 11:00:21;;;;;;;21.90;9.73;;;;;;;28.10;35.80;101229.69;5000068;28;20104;-66
2021/08/04 11:02:47;;;;;;;22.88;10.13;;;;;;;28.00;34.44;101223.09;4999271;28;20117;-70
2021/08/04 11:05:13;;;;;;;21.58;10.68;;;;;;;27.10;35.98;101233.03;4999215;28;20137;-69
2021/08/04 11:08:16;;;;;;;24.67;12.43;;;;;;;26.68;37.29;101227.34;4998555;28;20129;-62